Time;durP1;ratioP1;P1;durP2;ratioP2;P2;SDS_P1;SDS_P2;PMS_P1;PMS_P2;Temp;Humidity;BMP_temperature;BMP_pressure;BME280_temperature;BME280_humidity;BME280_pressure;Samples;Min_cycle;Max_cycle;Signal;HPM_P1;HPM_P2
2022/07/13 00:02:24;;;;;;;68.57;5.10;;;23.40;57.10;;;;;;5079098;28;20395;-87
2022/07/13 00:04:50;;;;;;;71.00;5.10;;;23.40;56.40;;;;;;5083280;28;20242;-86
2022/07/13 00:07:15;;;;;;;67.80;4.87;;;23.40;55.90;;;;;;5064952;28;20210;-86
2022/07/13 00:09:41;;;;;;;69.47;5.47;;;23.40;54.80;;;;;;5082759;28;20187;-86
2022/07/13 00:12:07;;;;;;;68.90;5.37;;;23.40;54.10;;;;;;5064359;28;20175;-86
2022/07/13 00:14:33;;;;;;;72.60;5.40;;;23.40;53.00;;;;;;5063924;28;20446;-88
2022/07/13 00:16:59;;;;;;;68.60;4.97;;;23.40;53.80;;;;;;5081621;28;20402;-87
2022/07/13 00:19:25;;;;;;;70.27;5.53;;;23.30;53.90;;;;;;5081561;28;20399;-87
2022/07/13 00:21:50;;;;;;;68.03;5.00;;;23.30;54.10;;;;;;5080272;28;20167;-86
2022/07/13 00:24:16;;;;;;;68.40;5.10;;;23.30;53.80;;;;;;5076235;28;20573;-86
2022/07/13 00:26:42;;;;;;;67.80;5.03;;;23.30;53.80;;;;;;5076729;28;20168;-86
2022/07/13 00:29:08;;;;;;;68.20;5.20;;;23.30;54.50;;;;;;5076754;28;20655;-86
2022/07/13 00:31:34;;;;;;;68.53;5.20;;;23.30;54.70;;;;;;5077527;28;20406;-86
2022/07/13 00:33:59;;;;;;;69.40;5.47;;;23.20;54.30;;;;;;5077501;28;20688;-86
2022/07/13 00:36:25;;;;;;;69.10;5.87;;;23.20;53.00;;;;;;5077727;28;20634;-86
2022/07/13 00:38:51;;;;;;;69.03;5.50;;;23.20;54.10;;;;;;5077202;28;20212;-86
2022/07/13 00:41:16;;;;;;;71.37;5.83;;;23.20;53.60;;;;;;5077577;28;20160;-86
2022/07/13 00:43:42;;;;;;;67.97;5.33;;;23.20;52.20;;;;;;5059470;28;20176;-86
2022/07/13 00:46:09;;;;;;;69.57;5.90;;;23.10;52.20;;;;;;5077292;28;20496;-86
2022/07/13 00:48:36;;;;;;;69.00;5.73;;;23.10;50.20;;;;;;5076707;28;20195;-86
2022/07/13 00:51:02;;;;;;;68.73;7.03;;;23.10;49.80;;;;;;5077918;28;20402;-86
2022/07/13 00:53:28;;;;;;;70.60;8.20;;;23.10;48.30;;;;;;5059746;28;20410;-86
2022/07/13 00:55:53;;;;;;;69.53;7.43;;;23.10;46.70;;;;;;5077601;28;20230;-86
2022/07/13 00:58:19;;;;;;;67.90;7.60;;;23.10;46.70;;;;;;5077964;28;20433;-87
2022/07/13 01:00:45;;;;;;;69.37;7.57;;;23.10;45.40;;;;;;5077588;28;20156;-86
2022/07/13 01:03:11;;;;;;;68.97;7.37;;;23.10;44.60;;;;;;5060020;28;20406;-86
2022/07/13 01:05:37;;;;;;;69.30;8.07;;;23.10;44.40;;;;;;5078859;28;20180;-87
2022/07/13 01:08:05;;;;;;;67.70;5.80;;;23.10;44.60;;;;;;5079980;28;20188;-86
2022/07/13 01:10:31;;;;;;;68.43;4.70;;;23.00;47.10;;;;;;5064293;28;20225;-88
2022/07/13 01:12:57;;;;;;;67.53;4.53;;;23.00;50.60;;;;;;5060800;28;20565;-86
2022/07/13 01:15:23;;;;;;;68.00;4.13;;;23.00;54.10;;;;;;5076168;28;20192;-87
2022/07/13 01:17:48;;;;;;;68.60;5.10;;;23.00;58.80;;;;;;5077486;28;20442;-87
2022/07/13 01:20:17;;;;;;;68.60;8.27;;;23.00;65.90;;;;;;5058073;28;20205;-87
2022/07/13 01:22:45;;;;;;;71.93;17.03;;;22.90;71.20;;;;;;5075612;28;20932;-87
2022/07/13 01:25:14;;;;;;;73.70;22.53;;;22.90;78.60;;;;;;5078326;28;20406;-88
2022/07/13 01:27:41;;;;;;;74.93;26.23;;;22.90;80.30;;;;;;5081275;28;20418;-87
2022/07/13 01:30:08;;;;;;;77.33;32.73;;;22.80;84.20;;;;;;5080404;28;20398;-87
2022/07/13 01:32:48;;;;;;;78.40;34.87;;;22.70;90.40;;;;;;5080983;28;20399;-86
2022/07/13 01:35:15;;;;;;;74.73;28.93;;;22.70;92.20;;;;;;5079224;28;20461;-86
2022/07/13 01:37:42;;;;;;;79.80;35.47;;;22.70;93.20;;;;;;5082255;28;20902;-86
2022/07/13 01:40:08;;;;;;;75.93;31.47;;;22.70;94.40;;;;;;5079623;28;20470;-87
2022/07/13 01:42:43;;;;;;;76.10;29.67;;;22.60;97.60;;;;;;5059978;28;20464;-86
2022/07/13 01:45:09;;;;;;;75.13;28.87;;;22.40;99.20;;;;;;5079367;28;20459;-86
2022/07/13 01:47:39;;;;;;;73.13;25.27;;;22.50;98.50;;;;;;5079619;28;20450;-87
2022/07/13 01:50:07;;;;;;;73.87;25.90;;;22.50;98.10;;;;;;5081716;28;20395;-87
2022/07/13 01:52:33;;;;;;;74.33;22.40;;;22.60;98.80;;;;;;5081302;28;20452;-87
2022/07/13 01:54:59;;;;;;;72.03;23.03;;;22.50;98.40;;;;;;5080714;28;20441;-88
2022/07/13 01:57:24;;;;;;;72.87;19.87;;;22.50;99.10;;;;;;5060459;28;20431;-87
2022/07/13 01:59:51;;;;;;;73.67;22.60;;;22.50;99.30;;;;;;5059505;28;20413;-88
2022/07/13 02:02:17;;;;;;;71.87;20.00;;;22.50;98.80;;;;;;5077527;28;20191;-87
2022/07/13 02:04:43;;;;;;;75.27;27.97;;;22.50;98.70;;;;;;5077882;28;20398;-87
2022/07/13 02:07:09;;;;;;;72.20;22.90;;;22.50;97.20;;;;;;5078071;28;20937;-87
2022/07/13 02:09:35;;;;;;;71.80;23.20;;;22.50;96.80;;;;;;5077132;28;20402;-87
2022/07/13 02:12:00;;;;;;;74.23;23.93;;;22.40;97.90;;;;;;5059095;28;20290;-87
2022/07/13 02:14:26;;;;;;;74.10;23.97;;;22.40;97.00;;;;;;5058819;28;20559;-87
2022/07/13 02:16:52;;;;;;;73.57;22.87;;;22.40;96.60;;;;;;5058943;28;20165;-86
2022/07/13 02:19:18;;;;;;;72.17;22.17;;;22.40;96.40;;;;;;5058675;28;20247;-86
2022/07/13 02:21:46;;;;;;;73.70;24.83;;;22.40;96.50;;;;;;5059862;28;20175;-86
2022/07/13 02:24:11;;;;;;;72.83;23.83;;;22.40;95.60;;;;;;5059537;28;20442;-86
2022/07/13 02:26:37;;;;;;;74.60;26.30;;;22.30;96.00;;;;;;5077618;28;20436;-87
2022/07/13 02:29:04;;;;;;;72.40;22.10;;;22.30;95.70;;;;;;5077513;28;20187;-87
2022/07/13 02:31:30;;;;;;;73.97;25.00;;;22.30;95.70;;;;;;5058647;28;20171;-87
2022/07/13 02:33:56;;;;;;;72.57;22.87;;;22.30;96.00;;;;;;5058474;28;20402;-86
2022/07/13 02:36:22;;;;;;;73.17;22.70;;;22.20;96.90;;;;;;5081594;22;20235;-81
2022/07/13 02:38:47;;;;;;;72.30;19.07;;;22.20;96.20;;;;;;5078359;28;20418;-83
2022/07/13 02:41:13;;;;;;;72.80;21.13;;;22.20;96.30;;;;;;5077793;28;20175;-83
2022/07/13 02:43:41;;;;;;;73.93;21.83;;;22.20;96.20;;;;;;5079115;28;20160;-81
2022/07/13 02:46:07;;;;;;;74.10;24.50;;;22.20;96.30;;;;;;5079020;28;20160;-81
2022/07/13 02:48:33;;;;;;;73.67;24.20;;;22.20;95.20;;;;;;5083203;28;20505;-83
2022/07/13 02:50:59;;;;;;;74.27;25.30;;;22.00;96.30;;;;;;5080974;28;20171;-81
2022/07/13 02:53:25;;;;;;;73.00;22.07;;;21.90;97.50;;;;;;5082986;28;20166;-84
2022/07/13 02:55:51;;;;;;;76.97;24.13;;;22.00;97.80;;;;;;5081238;28;20450;-84
2022/07/13 02:58:16;;;;;;;75.20;24.00;;;22.10;95.50;;;;;;5083571;28;20448;-81
2022/07/13 03:00:42;;;;;;;76.37;26.37;;;21.90;94.10;;;;;;5083212;28;20398;-81
2022/07/13 03:03:08;;;;;;;77.30;29.20;;;21.80;96.10;;;;;;5082742;28;20172;-83
2022/07/13 03:05:33;;;;;;;73.00;23.90;;;21.80;95.70;;;;;;5082408;28;20251;-83
2022/07/13 03:08:02;;;;;;;74.27;26.13;;;21.80;96.30;;;;;;5082855;28;20180;-83
2022/07/13 03:10:28;;;;;;;74.00;26.40;;;21.70;97.50;;;;;;5082070;28;20248;-83
2022/07/13 03:12:58;;;;;;;72.60;22.97;;;21.70;96.50;;;;;;5080396;28;20489;-84
2022/07/13 03:15:24;;;;;;;72.30;18.80;;;21.90;96.30;;;;;;5081852;28;20187;-83
2022/07/13 03:17:50;;;;;;;73.57;23.37;;;21.90;96.80;;;;;;5081817;28;20422;-83
2022/07/13 03:20:16;;;;;;;71.23;20.33;;;22.00;95.20;;;;;;5082448;28;20401;-83
2022/07/13 03:22:41;;;;;;;73.67;24.80;;;22.00;95.20;;;;;;5082791;28;20164;-83
2022/07/13 03:25:08;;;;;;;74.37;27.00;;;22.00;94.90;;;;;;5082195;28;20237;-83
2022/07/13 03:27:34;;;;;;;72.40;21.60;;;22.10;94.00;;;;;;5082433;28;20176;-84
2022/07/13 03:29:59;;;;;;;73.40;22.70;;;21.90;93.60;;;;;;5081249;28;20398;-83
2022/07/13 03:32:25;;;;;;;74.97;24.27;;;21.80;94.20;;;;;;5081911;28;20167;-83
2022/07/13 03:34:51;;;;;;;76.57;28.63;;;21.70;94.90;;;;;;5082116;28;20249;-83
2022/07/13 03:37:16;;;;;;;73.67;22.63;;;21.80;93.60;;;;;;5082008;28;20667;-84
2022/07/13 03:39:42;;;;;;;73.70;26.40;;;21.70;92.40;;;;;;5080961;28;20221;-83
2022/07/13 03:42:08;;;;;;;74.60;19.47;;;21.70;92.20;;;;;;5082029;28;20172;-83
2022/07/13 03:44:33;;;;;;;70.37;17.17;;;21.80;90.00;;;;;;5082548;28;20655;-83
2022/07/13 03:47:00;;;;;;;71.97;19.90;;;21.60;86.50;;;;;;5091086;28;20156;-83
2022/07/13 03:49:26;;;;;;;72.07;18.00;;;21.60;88.30;;;;;;5081652;28;20259;-83
2022/07/13 03:51:54;;;;;;;74.27;21.30;;;21.60;86.50;;;;;;5082271;28;20430;-83
2022/07/13 03:54:20;;;;;;;67.97;9.70;;;21.70;87.90;;;;;;5081711;28;20417;-83
2022/07/13 03:56:46;;;;;;;71.30;14.07;;;21.70;81.70;;;;;;5081656;28;20423;-84
2022/07/13 03:59:12;;;;;;;72.70;7.70;;;21.60;79.30;;;;;;5081043;28;20194;-83
2022/07/13 04:01:37;;;;;;;69.37;11.77;;;21.60;79.10;;;;;;5082715;28;20402;-83
2022/07/13 04:04:03;;;;;;;68.50;8.90;;;21.60;78.40;;;;;;5082827;28;20198;-83
2022/07/13 04:06:29;;;;;;;69.40;11.27;;;21.60;73.00;;;;;;5082401;28;20167;-83
2022/07/13 04:08:55;;;;;;;70.10;12.50;;;21.60;77.10;;;;;;5081079;28;20193;-83
2022/07/13 04:11:21;;;;;;;70.00;11.13;;;21.60;77.10;;;;;;5082647;28;20160;-83
2022/07/13 04:13:46;;;;;;;68.50;6.43;;;21.60;70.70;;;;;;5082662;28;20164;-83
2022/07/13 04:16:12;;;;;;;68.03;5.97;;;21.60;72.70;;;;;;5082099;28;20168;-83
2022/07/13 04:18:37;;;;;;;67.97;5.57;;;21.60;71.30;;;;;;5082658;28;20176;-83
2022/07/13 04:21:03;;;;;;;73.50;7.80;;;21.60;67.20;;;;;;5082620;28;20160;-83
2022/07/13 04:23:30;;;;;;;68.10;5.10;;;21.50;70.40;;;;;;5082366;28;20163;-83
2022/07/13 04:25:57;;;;;;;67.40;6.43;;;21.60;64.90;;;;;;5081525;28;20434;-83
2022/07/13 04:28:23;;;;;;;68.87;5.30;;;21.50;68.30;;;;;;5082269;28;20426;-83
2022/07/13 04:30:49;;;;;;;68.13;4.70;;;21.60;66.20;;;;;;5082773;28;20458;-83
2022/07/13 04:33:15;;;;;;;67.10;5.07;;;21.70;65.70;;;;;;5081759;28;20416;-83
2022/07/13 04:35:41;;;;;;;68.20;4.60;;;21.80;64.50;;;;;;5081226;28;20416;-83
2022/07/13 04:38:08;;;;;;;68.90;5.30;;;21.80;62.50;;;;;;5080302;28;20461;-83
2022/07/13 04:40:33;;;;;;;69.27;5.50;;;21.80;64.10;;;;;;5080623;28;20904;-83
2022/07/13 04:42:59;;;;;;;67.10;4.87;;;21.90;66.10;;;;;;5081113;28;20169;-83
2022/07/13 04:45:25;;;;;;;67.70;6.40;;;21.90;63.80;;;;;;5079907;28;20567;-84
2022/07/13 04:47:50;;;;;;;67.43;4.60;;;21.90;63.70;;;;;;5081114;28;20725;-84
2022/07/13 04:50:16;;;;;;;67.17;4.63;;;21.90;61.80;;;;;;5078791;28;20218;-83
2022/07/13 04:52:42;;;;;;;66.40;4.37;;;21.80;59.20;;;;;;5082060;28;20160;-83
2022/07/13 04:55:09;;;;;;;67.97;4.50;;;21.90;62.30;;;;;;5079824;28;20183;-84
2022/07/13 04:57:36;;;;;;;67.87;4.73;;;21.90;57.40;;;;;;5080037;28;20447;-83
2022/07/13 05:00:03;;;;;;;68.47;4.60;;;21.90;55.80;;;;;;5081604;28;20761;-83
2022/07/13 05:02:29;;;;;;;66.30;3.83;;;21.80;57.40;;;;;;5081626;28;20411;-84
2022/07/13 05:04:55;;;;;;;67.10;4.50;;;21.80;57.70;;;;;;5081258;28;20457;-83
2022/07/13 05:07:20;;;;;;;67.80;4.00;;;21.80;56.70;;;;;;5079125;28;20230;-84
2022/07/13 05:09:46;;;;;;;67.40;4.03;;;21.90;57.10;;;;;;5080659;28;20175;-83
2022/07/13 05:12:12;;;;;;;69.23;3.90;;;21.90;56.70;;;;;;5079465;28;20179;-84
2022/07/13 05:14:37;;;;;;;67.80;4.77;;;21.90;55.40;;;;;;5079892;28;20176;-83
2022/07/13 05:17:03;;;;;;;66.93;3.60;;;21.90;55.00;;;;;;5081207;28;20187;-83
2022/07/13 05:19:29;;;;;;;67.63;4.50;;;21.90;55.30;;;;;;5080171;28;20167;-83
2022/07/13 05:21:55;;;;;;;66.47;3.50;;;22.00;55.00;;;;;;5079639;28;20172;-84
2022/07/13 05:24:20;;;;;;;68.30;3.97;;;22.10;54.30;;;;;;5079411;28;20245;-83
2022/07/13 05:26:46;;;;;;;66.90;4.10;;;22.10;54.50;;;;;;5080142;28;20171;-83
2022/07/13 05:29:11;;;;;;;70.03;3.73;;;22.10;52.00;;;;;;5079598;28;20175;-83
2022/07/13 05:31:37;;;;;;;68.83;4.17;;;22.00;51.50;;;;;;5079592;28;20161;-83
2022/07/13 05:34:03;;;;;;;67.20;4.73;;;22.00;54.40;;;;;;5079993;28;20160;-83
2022/07/13 05:36:29;;;;;;;68.57;7.30;;;22.10;57.10;;;;;;5079531;28;20187;-83
2022/07/13 05:38:55;;;;;;;73.77;21.60;;;22.20;60.40;;;;;;5077920;28;20430;-83
2022/07/13 05:41:21;;;;;;;73.73;21.00;;;22.30;63.70;;;;;;5080397;28;20191;-83
2022/07/13 05:43:47;;;;;;;72.13;19.63;;;22.30;66.60;;;;;;5079721;28;20398;-83
2022/07/13 05:46:12;;;;;;;74.47;21.53;;;22.30;71.10;;;;;;5078251;28;20168;-83
2022/07/13 05:48:38;;;;;;;73.80;22.43;;;22.40;68.70;;;;;;5078657;28;20883;-84
2022/07/13 05:51:04;;;;;;;70.07;9.80;;;22.40;69.30;;;;;;5078606;28;20182;-83
2022/07/13 05:53:30;;;;;;;68.77;4.67;;;22.50;66.30;;;;;;5079451;28;20164;-83
2022/07/13 05:55:56;;;;;;;70.00;5.73;;;22.40;59.50;;;;;;5080032;28;20417;-83
2022/07/13 05:58:22;;;;;;;66.77;4.63;;;22.20;60.90;;;;;;5078046;28;20563;-84
2022/07/13 06:00:47;;;;;;;66.87;4.50;;;22.20;58.50;;;;;;5079224;28;20415;-83
2022/07/13 06:03:13;;;;;;;68.87;4.10;;;22.20;57.70;;;;;;5080025;28;20187;-83
2022/07/13 06:05:39;;;;;;;67.17;3.80;;;22.20;59.00;;;;;;5078665;28;20337;-83
2022/07/13 06:08:05;;;;;;;68.87;3.97;;;22.30;57.10;;;;;;5079720;28;20199;-84
2022/07/13 06:10:30;;;;;;;68.87;4.60;;;22.30;55.50;;;;;;5078380;28;20171;-83
2022/07/13 06:12:56;;;;;;;68.40;4.20;;;22.40;56.60;;;;;;5079255;28;20221;-83
2022/07/13 06:15:22;;;;;;;69.57;3.90;;;22.40;55.80;;;;;;5078489;28;20195;-83
2022/07/13 06:17:47;;;;;;;67.67;3.90;;;22.40;48.70;;;;;;5079554;28;20184;-83
2022/07/13 06:20:13;;;;;;;69.10;5.00;;;22.40;52.00;;;;;;5077571;28;20174;-83
2022/07/13 06:22:39;;;;;;;67.90;4.57;;;22.40;52.20;;;;;;5077787;28;20168;-83
2022/07/13 06:25:05;;;;;;;68.20;4.60;;;22.40;51.70;;;;;;5080750;28;20239;-84
2022/07/13 06:27:31;;;;;;;69.70;5.00;;;22.50;52.90;;;;;;5078392;28;20183;-84
2022/07/13 06:29:57;;;;;;;73.73;4.53;;;22.60;55.40;;;;;;5076310;28;20943;-83
2022/07/13 06:32:22;;;;;;;68.07;4.30;;;22.70;53.80;;;;;;5077802;28;20247;-83
2022/07/13 06:34:48;;;;;;;68.20;4.63;;;22.70;57.50;;;;;;5077240;28;20631;-83
2022/07/13 06:37:14;;;;;;;71.90;5.10;;;22.80;57.80;;;;;;5077801;28;20222;-84
2022/07/13 06:39:39;;;;;;;68.17;4.80;;;22.80;58.90;;;;;;5077135;28;20253;-84
2022/07/13 06:42:05;;;;;;;67.73;4.10;;;23.00;56.20;;;;;;5078708;28;20501;-84
2022/07/13 06:44:31;;;;;;;70.43;4.23;;;23.00;52.60;;;;;;5077712;28;20188;-84
2022/07/13 06:46:59;;;;;;;66.87;3.93;;;23.10;50.90;;;;;;5079369;28;20228;-84
2022/07/13 06:49:26;;;;;;;66.60;3.73;;;23.10;50.80;;;;;;5078453;28;20159;-83
2022/07/13 06:51:54;;;;;;;72.77;3.77;;;23.20;48.00;;;;;;5078354;28;20398;-84
2022/07/13 06:54:20;;;;;;;68.27;4.13;;;23.10;47.20;;;;;;5077329;28;20408;-83
2022/07/13 06:56:46;;;;;;;66.67;3.03;;;23.30;50.60;;;;;;5076680;28;20421;-84
2022/07/13 06:59:12;;;;;;;67.37;3.97;;;23.50;46.50;;;;;;5077612;28;20258;-83
2022/07/13 07:01:38;;;;;;;70.50;3.37;;;23.60;46.80;;;;;;5078762;28;20416;-84
2022/07/13 07:04:04;;;;;;;67.27;3.20;;;23.70;40.00;;;;;;5078464;28;20685;-83
2022/07/13 07:06:30;;;;;;;67.03;3.53;;;23.80;37.90;;;;;;5079369;28;20191;-83
2022/07/13 07:08:58;;;;;;;67.70;4.03;;;23.90;34.60;;;;;;5077570;28;20180;-84
2022/07/13 07:11:24;;;;;;;67.00;4.30;;;24.00;27.70;;;;;;5076907;28;20460;-83
2022/07/13 07:13:50;;;;;;;68.50;4.57;;;24.00;31.80;;;;;;5078698;28;20455;-84
2022/07/13 07:16:16;;;;;;;78.60;4.83;;;24.20;24.80;;;;;;5077244;28;20164;-83
2022/07/13 07:18:41;;;;;;;69.00;3.97;;;24.20;25.30;;;;;;5077805;28;20495;-84
2022/07/13 07:21:07;;;;;;;70.30;5.50;;;24.40;26.60;;;;;;5078238;28;20164;-82
2022/07/13 07:23:33;;;;;;;70.23;5.23;;;24.30;26.30;;;;;;5078401;28;20164;-84
2022/07/13 07:25:59;;;;;;;68.97;5.50;;;24.30;27.70;;;;;;5078811;28;20192;-82
2022/07/13 07:28:24;;;;;;;68.37;6.37;;;24.30;25.30;;;;;;5077117;28;20188;-83
2022/07/13 07:30:51;;;;;;;72.13;4.57;;;24.20;25.40;;;;;;5077547;28;20399;-83
2022/07/13 07:33:17;;;;;;;70.57;6.47;;;24.30;29.00;;;;;;5080754;28;20244;-83
2022/07/13 07:35:43;;;;;;;72.10;6.77;;;24.40;25.70;;;;;;5082232;28;20484;-83
2022/07/13 07:38:08;;;;;;;69.30;8.90;;;24.40;25.60;;;;;;5080442;28;20193;-84
2022/07/13 07:40:34;;;;;;;71.23;7.83;;;24.30;24.60;;;;;;5082450;28;20160;-84
2022/07/13 07:43:00;;;;;;;70.87;8.37;;;24.30;24.80;;;;;;5081650;28;20172;-84
2022/07/13 07:45:26;;;;;;;71.50;8.47;;;24.30;25.10;;;;;;5080691;28;20189;-84
2022/07/13 07:47:51;;;;;;;69.17;9.77;;;24.30;24.70;;;;;;5083065;28;20177;-84
2022/07/13 07:50:17;;;;;;;70.03;7.00;;;24.30;23.60;;;;;;5081472;28;20631;-84
2022/07/13 07:52:43;;;;;;;69.97;9.20;;;24.40;24.90;;;;;;5080318;28;20172;-83
2022/07/13 07:55:09;;;;;;;68.97;6.87;;;24.40;23.80;;;;;;5079476;28;20166;-83
2022/07/13 07:57:47;;;;;;;72.13;10.30;;;24.30;24.70;;;;;;5080382;28;20188;-83
2022/07/13 08:00:14;;;;;;;69.57;8.20;;;24.30;20.60;;;;;;5079599;28;20192;-83
2022/07/13 08:02:40;;;;;;;71.13;8.83;;;24.40;24.30;;;;;;5081260;28;20941;-84
2022/07/13 08:05:08;;;;;;;72.43;8.57;;;24.40;24.40;;;;;;5080687;28;20442;-83
2022/07/13 08:07:34;;;;;;;69.57;8.27;;;24.30;22.80;;;;;;5079166;28;20447;-83
2022/07/13 08:09:59;;;;;;;69.27;4.40;;;24.20;25.30;;;;;;5079985;28;20398;-83
2022/07/13 08:12:25;;;;;;;73.60;4.20;;;24.30;29.80;;;;;;5078706;28;20394;-83
2022/07/13 08:14:51;;;;;;;66.80;3.40;;;24.30;48.00;;;;;;5079038;28;20195;-83
2022/07/13 08:17:16;;;;;;;71.03;13.63;;;24.30;60.60;;;;;;5078712;28;20180;-83
2022/07/13 08:19:42;;;;;;;68.40;6.93;;;24.30;78.80;;;;;;5078639;28;20215;-83
2022/07/13 08:22:08;;;;;;;67.80;4.40;;;24.30;75.10;;;;;;5082407;28;20167;-84
2022/07/13 08:24:34;;;;;;;73.13;17.20;;;24.40;81.20;;;;;;5080917;28;20234;-83
2022/07/13 08:27:01;;;;;;;73.20;23.20;;;24.40;83.60;;;;;;5080981;28;20575;-84
2022/07/13 08:29:26;;;;;;;71.87;17.10;;;24.40;90.90;;;;;;5079570;28;20169;-83
2022/07/13 08:31:52;;;;;;;73.60;21.33;;;24.50;83.40;;;;;;5081284;28;21031;-83
2022/07/13 08:40:00;;;;;;;69.60;3.43;;;24.90;68.90;;;;;;5082099;28;20403;-86
2022/07/13 08:42:26;;;;;;;69.40;3.70;;;25.30;54.20;;;;;;5082728;28;20392;-86
2022/07/13 08:44:52;;;;;;;68.10;3.80;;;25.60;46.50;;;;;;5081241;28;20224;-86
2022/07/13 08:47:18;;;;;;;69.63;5.00;;;25.60;30.20;;;;;;5083254;28;20435;-85
2022/07/13 08:49:44;;;;;;;67.60;4.07;;;25.60;37.70;;;;;;5081979;28;20158;-85
2022/07/13 08:52:13;;;;;;;67.57;3.73;;;25.80;37.60;;;;;;5080593;28;20414;-85
2022/07/13 08:54:39;;;;;;;69.07;4.90;;;25.70;32.50;;;;;;5083255;28;20171;-86
2022/07/13 08:57:05;;;;;;;67.23;3.60;;;25.80;39.40;;;;;;5084369;28;20486;-86
2022/07/13 08:59:30;;;;;;;68.00;3.30;;;26.00;31.50;;;;;;5084031;28;20185;-86
2022/07/13 09:01:56;;;;;;;67.97;3.23;;;26.10;39.30;;;;;;5084922;28;20163;-86
2022/07/13 09:04:25;;;;;;;71.00;3.50;;;26.30;35.00;;;;;;5083386;28;20195;-85
2022/07/13 09:06:51;;;;;;;68.57;3.80;;;26.70;25.70;;;;;;5082283;28;20417;-85
2022/07/13 09:09:43;;;;;;;70.17;4.50;;;26.70;24.30;;;;;;5082986;28;20485;-86
2022/07/13 09:12:09;;;;;;;70.40;3.90;;;26.90;19.70;;;;;;5082680;28;20651;-86
2022/07/13 09:14:35;;;;;;;69.77;4.37;;;27.20;17.10;;;;;;5080522;28;20417;-85
2022/07/13 09:17:01;;;;;;;67.07;3.13;;;27.40;12.50;;;;;;5080303;28;20200;-86
2022/07/13 09:19:35;;;;;;;66.73;2.87;;;27.60;10.60;;;;;;5082620;28;20516;-85
2022/07/13 09:22:12;;;;;;;67.10;4.10;;;27.60;1.70;;;;;;5088165;28;20421;-84
2022/07/13 09:24:50;;;;;;;67.40;2.90;;;27.80;14.30;;;;;;5087451;28;20453;-86
2022/07/13 09:27:17;;;;;;;67.23;3.20;;;28.00;1.00;;;;;;5083613;28;20491;-86
2022/07/13 09:29:43;;;;;;;73.70;3.30;;;28.00;1.00;;;;;;5083914;28;20406;-85
2022/07/13 09:32:11;;;;;;;68.70;3.10;;;27.90;1.00;;;;;;5084896;28;20413;-86
2022/07/13 09:35:02;;;;;;;70.37;3.87;;;28.20;1.00;;;;;;5086773;28;20920;-86
2022/07/13 09:37:30;;;;;;;66.67;2.70;;;28.40;1.00;;;;;;5086797;28;20525;-86
2022/07/13 09:40:17;;;;;;;66.97;2.83;;;28.40;1.00;;;;;;5085269;28;20406;-86
2022/07/13 09:42:45;;;;;;;73.00;3.70;;;28.50;1.00;;;;;;5083646;28;20510;-86
2022/07/13 09:48:13;;;;;;;;;;;;;;;;;;;;;
2022/07/13 09:50:40;;;;;;;67.23;2.87;;;28.70;1.00;;;;;;5085004;28;20481;-86
2022/07/13 09:53:29;;;;;;;66.57;2.67;;;28.70;1.00;;;;;;5082659;28;20924;-86
2022/07/13 09:56:06;;;;;;;68.00;2.90;;;28.70;1.00;;;;;;5083225;28;20411;-86
2022/07/13 09:58:37;;;;;;;66.37;2.70;;;28.70;1.00;;;;;;5084566;28;20517;-86
2022/07/13 10:01:03;;;;;;;67.97;3.30;;;28.70;1.00;;;;;;5083526;28;20445;-86
2022/07/13 10:03:30;;;;;;;74.47;3.30;;;28.60;1.00;;;;;;5084129;28;20395;-86
2022/07/13 10:05:58;;;;;;;70.17;3.20;;;28.60;1.00;;;;;;5084895;28;20426;-86
2022/07/13 10:08:45;;;;;;;69.73;3.60;;;28.60;1.00;;;;;;5085578;28;20473;-86
2022/07/13 10:11:10;;;;;;;69.17;2.93;;;28.60;1.00;;;;;;5083127;28;20486;-85
2022/07/13 10:13:38;;;;;;;67.27;3.10;;;28.70;1.00;;;;;;5083721;28;20406;-86
2022/07/13 10:16:07;;;;;;;68.40;2.87;;;28.70;1.00;;;;;;5083815;28;20168;-86
2022/07/13 10:18:39;;;;;;;67.00;2.80;;;28.70;1.00;;;;;;5082124;28;20430;-86
2022/07/13 10:21:26;;;;;;;67.73;2.77;;;28.70;1.00;;;;;;5082871;28;20410;-86
2022/07/13 10:23:52;;;;;;;66.87;2.70;;;28.70;1.00;;;;;;5082237;28;20398;-85
2022/07/13 10:26:24;;;;;;;68.60;3.30;;;28.50;1.00;;;;;;5080938;28;20461;-86
2022/07/13 10:29:03;;;;;;;68.83;3.70;;;28.60;1.00;;;;;;5082580;28;20184;-86
2022/07/13 10:31:31;;;;;;;67.83;3.10;;;28.50;1.00;;;;;;5082133;28;20410;-86
2022/07/13 10:33:57;;;;;;;68.47;3.50;;;28.50;1.00;;;;;;5082766;28;20978;-87
2022/07/13 10:37:04;;;;;;;68.80;3.27;;;28.50;1.00;;;;;;5083491;28;20425;-86
2022/07/13 10:39:30;;;;;;;70.23;3.30;;;28.40;1.00;;;;;;5061218;28;20419;-86
2022/07/13 10:41:58;;;;;;;67.90;3.67;;;28.40;1.00;;;;;;5075110;28;20406;-86
2022/07/13 10:44:41;;;;;;;70.57;3.60;;;28.40;1.00;;;;;;5082595;28;20188;-85
2022/07/13 10:47:12;;;;;;;67.80;3.10;;;28.40;1.00;;;;;;5081717;28;20452;-86
2022/07/13 10:50:21;;;;;;;70.43;3.27;;;28.40;1.00;;;;;;5083511;28;20404;-86
2022/07/13 10:52:53;;;;;;;68.17;3.87;;;28.50;1.00;;;;;;5083721;28;20420;-86
2022/07/13 10:55:19;;;;;;;67.30;3.47;;;28.60;1.00;;;;;;5083268;28;20474;-86
2022/07/13 10:57:46;;;;;;;67.77;3.70;;;28.70;1.00;;;;;;5085091;28;20422;-87
2022/07/13 11:00:24;;;;;;;69.23;4.03;;;28.90;1.00;;;;;;5084190;28;20164;-87
2022/07/13 11:02:53;;;;;;;70.07;3.70;;;29.10;1.00;;;;;;5083393;28;20390;-85
2022/07/13 11:05:26;;;;;;;69.37;3.63;;;29.20;1.00;;;;;;5083228;28;20532;-87
2022/07/13 11:07:57;;;;;;;69.50;3.27;;;29.00;1.00;;;;;;5084661;28;20425;-87
2022/07/13 11:10:22;;;;;;;66.83;3.30;;;29.10;1.00;;;;;;5086958;28;20406;-86
2022/07/13 11:13:00;;;;;;;69.50;3.70;;;29.30;1.00;;;;;;5086873;28;20425;-87
2022/07/13 11:15:46;;;;;;;68.00;3.10;;;29.60;1.00;;;;;;5088584;28;20231;-86
2022/07/13 11:18:24;;;;;;;67.20;2.80;;;29.90;1.00;;;;;;5087797;28;20475;-86
2022/07/13 11:20:56;;;;;;;67.27;3.47;;;29.90;1.00;;;;;;5088624;28;20393;-86
2022/07/13 11:26:46;;;;;;;66.70;2.70;;;29.80;1.00;;;;;;5087312;28;20483;-86
2022/07/13 11:29:20;;;;;;;70.47;3.07;;;29.60;1.00;;;;;;5085152;28;20406;-86
2022/07/13 11:31:53;;;;;;;67.27;3.60;;;29.40;1.00;;;;;;5085678;28;20406;-86
2022/07/13 11:34:19;;;;;;;68.30;2.90;;;29.40;1.00;;;;;;5087671;28;20391;-85
2022/07/13 11:36:49;;;;;;;68.27;2.57;;;29.60;1.00;;;;;;5085795;28;20426;-85
2022/07/13 11:39:29;;;;;;;68.53;3.10;;;29.60;1.00;;;;;;5083727;28;20464;-85
2022/07/13 11:41:56;;;;;;;67.17;2.60;;;29.70;1.00;;;;;;5083609;28;20456;-86
2022/07/13 11:44:32;;;;;;;69.83;3.10;;;29.80;1.00;;;;;;5084111;28;20446;-85
2022/07/13 11:47:04;;;;;;;68.80;2.40;;;29.80;1.00;;;;;;5086976;28;20378;-85
2022/07/13 11:49:52;;;;;;;66.17;2.23;;;29.90;1.00;;;;;;5083281;28;20413;-86
2022/07/13 11:52:22;;;;;;;67.60;2.33;;;30.10;1.00;;;;;;5085049;28;20937;-86
2022/07/13 11:54:59;;;;;;;67.47;2.63;;;30.20;1.00;;;;;;5086409;28;20459;-85
2022/07/13 11:57:26;;;;;;;71.23;2.73;;;30.20;1.00;;;;;;5084979;28;20426;-86
2022/07/13 11:59:52;;;;;;;71.97;2.90;;;30.20;1.00;;;;;;5084329;28;20445;-86
2022/07/13 12:02:18;;;;;;;66.17;2.10;;;30.30;1.00;;;;;;5083966;28;20407;-86
2022/07/13 12:04:48;;;;;;;68.57;2.53;;;30.40;1.00;;;;;;5084088;28;20500;-86
2022/07/13 12:07:26;;;;;;;70.13;2.80;;;30.40;1.00;;;;;;5084677;28;20426;-86
2022/07/13 12:10:20;;;;;;;67.20;2.97;;;30.30;1.00;;;;;;5085536;28;20387;-86
2022/07/13 12:13:48;;;;;;;66.27;2.47;;;30.40;1.00;;;;;;5083918;28;20452;-86
2022/07/13 12:16:43;;;;;;;67.37;2.60;;;30.70;1.00;;;;;;5058088;28;20506;-86
2022/07/13 12:19:27;;;;;;;67.17;2.67;;;31.10;1.00;;;;;;5041877;28;20947;-85
2022/07/13 12:25:48;;;;;;;70.27;2.67;;;31.90;1.00;;;;;;5027538;28;20993;-84
2022/07/13 12:28:33;;;;;;;68.07;2.47;;;32.20;1.00;;;;;;5051895;28;20434;-85
2022/07/13 12:31:01;;;;;;;66.97;2.50;;;32.20;1.00;;;;;;5045766;28;20934;-85
2022/07/13 12:33:55;;;;;;;67.47;2.80;;;32.20;1.00;;;;;;5060522;28;20399;-85
2022/07/13 12:39:09;;;;;;;67.70;3.50;;;32.80;1.00;;;;;;5119098;22;20539;-86
2022/07/13 12:41:45;;;;;;;66.97;3.13;;;32.80;1.00;;;;;;5085157;28;20383;-85
2022/07/13 12:44:25;;;;;;;73.83;3.63;;;33.00;1.00;;;;;;5086700;28;20167;-85
2022/07/13 12:47:13;;;;;;;68.60;3.63;;;33.10;1.00;;;;;;5065845;28;20413;-85
2022/07/13 12:49:42;;;;;;;67.10;2.70;;;33.30;1.00;;;;;;5082818;28;20921;-86
2022/07/13 12:52:12;;;;;;;67.90;2.37;;;33.60;1.00;;;;;;5062957;28;20434;-86
2022/07/13 12:54:57;;;;;;;67.27;2.13;;;33.50;1.00;;;;;;5062131;28;20865;-85
2022/07/13 12:58:16;;;;;;;;;;;;;;;;;;;;;
2022/07/13 13:00:48;;;;;;;67.27;2.40;;;33.40;1.00;;;;;;5070819;28;20466;-86
2022/07/13 13:03:23;;;;;;;69.13;2.47;;;33.30;1.00;;;;;;5064489;28;20399;-85
2022/07/13 13:09:12;;;;;;;67.97;2.30;;;32.70;1.00;;;;;;5072288;28;20846;-85
2022/07/13 13:12:30;;;;;;;;;;;;;;;;;;;;;